Time;durP1;ratioP1;P1;durP2;ratioP2;P2;SDS_P1;SDS_P2;PMS_P1;PMS_P2;Temp;Humidity;BMP_temperature;BMP_pressure;BME280_temperature;BME280_humidity;BME280_pressure;Samples;Min_cycle;Max_cycle;Signal;HPM_P1;HPM_P2
2023/12/05 04:02:06;;;;;;;4.25;3.50;;;21.60;22.30;;;;;;5153278;23;45523;-87
2023/12/05 04:04:32;;;;;;;4.97;3.93;;;21.60;22.30;;;;;;4938349;28;45152;-85
2023/12/05 04:06:58;;;;;;;4.10;3.70;;;21.60;22.40;;;;;;4920754;28;45365;-85
2023/12/05 04:09:24;;;;;;;3.97;3.58;;;21.70;22.30;;;;;;4958482;28;45555;-89
2023/12/05 04:11:50;;;;;;;4.17;3.77;;;21.70;22.30;;;;;;4940693;28;45124;-85
2023/12/05 04:14:15;;;;;;;4.00;3.60;;;21.70;22.30;;;;;;4942038;28;45550;-89
2023/12/05 04:16:41;;;;;;;4.18;3.60;;;21.70;22.30;;;;;;4927337;28;45124;-84
2023/12/05 04:19:07;;;;;;;4.10;3.70;;;21.70;22.30;;;;;;4941521;28;45977;-85
2023/12/05 04:21:33;;;;;;;4.60;3.67;;;21.70;22.30;;;;;;4942154;28;45595;-85
2023/12/05 04:24:00;;;;;;;3.85;3.50;;;21.70;22.30;;;;;;4938927;28;45362;-85
2023/12/05 04:26:28;;;;;;;3.85;3.55;;;21.80;22.30;;;;;;4952242;28;45152;-85
2023/12/05 04:28:53;;;;;;;4.17;3.53;;;21.80;22.30;;;;;;4954868;28;46197;-83
2023/12/05 04:31:20;;;;;;;4.10;3.70;;;21.90;22.30;;;;;;4934451;28;45488;-83
2023/12/05 04:33:46;;;;;;;3.80;3.40;;;21.90;22.30;;;;;;4929081;28;45343;-80
2023/12/05 04:36:13;;;;;;;3.78;3.47;;;21.90;22.30;;;;;;4953895;28;45620;-91
2023/12/05 04:38:38;;;;;;;4.38;3.60;;;21.90;22.20;;;;;;4925232;28;46301;-85
2023/12/05 04:41:06;;;;;;;3.70;3.33;;;22.00;22.30;;;;;;4954303;28;45030;-85
2023/12/05 04:43:32;;;;;;;4.00;3.55;;;22.00;22.20;;;;;;4959987;28;44985;-87
2023/12/05 04:45:58;;;;;;;3.50;3.20;;;22.00;22.20;;;;;;4950270;28;44916;-89
2023/12/05 04:48:24;;;;;;;3.57;3.27;;;22.00;22.10;;;;;;4975528;28;45845;-85
2023/12/05 04:50:50;;;;;;;3.55;3.25;;;22.10;22.20;;;;;;4958086;28;45050;-84
2023/12/05 04:53:15;;;;;;;3.50;3.20;;;22.10;22.10;;;;;;4959644;28;46183;-89
2023/12/05 04:55:41;;;;;;;3.70;3.40;;;22.10;22.10;;;;;;4925142;28;45054;-85
2023/12/05 04:58:07;;;;;;;3.70;3.17;;;22.20;22.10;;;;;;4943317;28;45532;-83
2023/12/05 05:00:36;;;;;;;3.70;3.40;;;22.20;22.10;;;;;;4939459;28;45072;-83
2023/12/05 05:03:02;;;;;;;3.57;3.27;;;22.20;22.10;;;;;;4949760;28;45412;-85
2023/12/05 05:05:28;;;;;;;3.20;2.90;;;22.20;22.10;;;;;;4971693;28;45360;-82
2023/12/05 05:07:54;;;;;;;3.42;3.03;;;22.30;22.10;;;;;;4942852;28;45504;-82
2023/12/05 05:10:20;;;;;;;3.20;2.90;;;22.30;22.00;;;;;;4955465;28;45226;-84
2023/12/05 05:12:46;;;;;;;3.67;3.30;;;22.30;22.00;;;;;;4942509;28;45695;-81
2023/12/05 05:15:14;;;;;;;3.43;3.13;;;22.30;22.00;;;;;;4941699;28;45543;-81
2023/12/05 05:17:40;;;;;;;3.35;3.05;;;22.40;22.00;;;;;;4952422;28;46880;-95
2023/12/05 05:20:07;;;;;;;3.25;2.95;;;22.40;22.00;;;;;;4940300;28;45548;-87
2023/12/05 05:22:33;;;;;;;3.38;3.08;;;22.40;22.00;;;;;;4941179;28;45350;-81
2023/12/05 05:24:59;;;;;;;3.85;3.20;;;22.40;22.00;;;;;;4944811;28;44923;-85
2023/12/05 05:27:25;;;;;;;3.15;2.85;;;22.40;21.90;;;;;;4954385;28;45279;-85
2023/12/05 05:29:51;;;;;;;3.05;2.75;;;22.50;22.00;;;;;;4948007;28;45291;-86
2023/12/05 05:32:16;;;;;;;3.37;3.07;;;22.50;22.00;;;;;;4972835;28;45624;-86
2023/12/05 05:34:42;;;;;;;3.33;2.90;;;22.50;21.90;;;;;;4942373;28;45465;-84
2023/12/05 05:37:08;;;;;;;3.28;2.97;;;22.50;21.90;;;;;;4968997;28;46331;-81
2023/12/05 05:39:34;;;;;;;2.80;2.60;;;22.50;21.90;;;;;;4974724;28;45085;-84
2023/12/05 05:42:00;;;;;;;3.40;3.10;;;22.50;21.90;;;;;;4939264;28;45442;-84
2023/12/05 05:44:27;;;;;;;3.20;2.90;;;22.50;21.90;;;;;;4959664;28;45693;-86
2023/12/05 05:46:53;;;;;;;3.87;3.20;;;22.50;21.90;;;;;;4926145;28;47107;-85
2023/12/05 05:49:19;;;;;;;3.50;2.80;;;22.50;21.90;;;;;;4954161;28;44967;-82
2023/12/05 05:51:45;;;;;;;3.20;2.90;;;22.60;21.90;;;;;;4926322;28;45809;-87
2023/12/05 05:54:11;;;;;;;3.50;2.85;;;22.60;21.90;;;;;;4959013;28;45528;-86
2023/12/05 05:56:40;;;;;;;3.63;2.70;;;22.50;21.90;;;;;;4957786;28;46420;-86
2023/12/05 05:59:06;;;;;;;3.00;2.70;;;22.50;21.90;;;;;;4955551;28;45241;-88
2023/12/05 06:01:31;;;;;;;3.20;2.90;;;22.60;21.90;;;;;;4918723;28;45334;-88
2023/12/05 06:04:00;;;;;;;3.67;3.13;;;22.60;21.90;;;;;;4928583;28;45180;-83
2023/12/05 06:06:34;;;;;;;3.25;2.85;;;22.60;21.90;;;;;;4919684;28;45645;-85
2023/12/05 06:09:04;;;;;;;3.40;3.10;;;22.60;21.90;;;;;;4953774;28;45020;-84
2023/12/05 06:11:36;;;;;;;3.65;2.95;;;22.60;21.90;;;;;;4935346;28;45127;-81
2023/12/05 06:14:06;;;;;;;3.20;2.90;;;22.60;21.80;;;;;;4939799;28;45177;-86
2023/12/05 06:16:34;;;;;;;3.40;3.10;;;22.60;21.80;;;;;;4931927;28;45312;-84
2023/12/05 06:19:18;;;;;;;3.70;3.25;;;22.50;21.80;;;;;;4939426;28;45363;-84
2023/12/05 06:22:17;;;;;;;3.77;3.37;;;22.70;21.90;;;;;;4936689;28;45416;-86
2023/12/05 06:25:13;;;;;;;3.90;3.50;;;22.60;21.80;;;;;;4960918;28;44869;-83
2023/12/05 06:27:58;;;;;;;4.15;3.65;;;22.60;21.80;;;;;;4935700;28;46579;-87
2023/12/05 06:30:41;;;;;;;4.20;3.70;;;22.60;21.80;;;;;;4918907;28;45019;-85
2023/12/05 06:33:15;;;;;;;4.85;4.13;;;22.60;21.80;;;;;;4941920;28;45499;-81
2023/12/05 06:35:42;;;;;;;5.10;4.00;;;22.60;21.90;;;;;;4911589;28;45134;-85
2023/12/05 06:38:13;;;;;;;4.15;3.55;;;22.60;21.80;;;;;;4941596;28;45919;-85
2023/12/05 06:40:56;;;;;;;4.63;4.03;;;22.60;21.80;;;;;;4929231;28;44965;-88
2023/12/05 06:43:40;;;;;;;4.35;3.80;;;22.60;21.80;;;;;;4927109;28;45013;-88
2023/12/05 06:46:18;;;;;;;4.40;3.75;;;22.60;21.80;;;;;;4943254;28;45399;-88
2023/12/05 06:48:48;;;;;;;4.30;3.85;;;22.60;21.80;;;;;;4960707;28;46056;-85
2023/12/05 06:51:23;;;;;;;4.53;3.72;;;22.70;21.90;;;;;;4941988;28;45365;-83
2023/12/05 06:53:49;;;;;;;5.05;4.07;;;22.60;21.80;;;;;;4938771;28;45573;-84
2023/12/05 06:56:20;;;;;;;4.70;4.00;;;22.60;21.80;;;;;;4925140;28;45892;-84
2023/12/05 06:58:46;;;;;;;4.55;3.90;;;22.60;21.80;;;;;;4960779;28;45823;-85
2023/12/05 07:01:12;;;;;;;5.43;4.15;;;22.60;22.20;;;;;;4946454;28;45492;-86
2023/12/05 07:03:38;;;;;;;4.75;4.25;;;22.60;22.30;;;;;;4956941;28;45892;-86
2023/12/05 07:06:06;;;;;;;4.90;3.97;;;22.70;21.90;;;;;;4946162;28;45722;-85
2023/12/05 07:08:40;;;;;;;4.28;3.88;;;22.60;21.80;;;;;;4949063;28;46795;-84
2023/12/05 07:11:06;;;;;;;4.57;4.00;;;22.60;21.80;;;;;;4960941;28;44960;-86
2023/12/05 07:13:33;;;;;;;5.07;4.55;;;22.60;21.80;;;;;;4951921;28;44898;-88
2023/12/05 07:16:02;;;;;;;4.45;4.00;;;22.60;21.80;;;;;;4978660;28;45198;-92
2023/12/05 07:18:28;;;;;;;4.50;4.00;;;22.60;21.80;;;;;;4944711;28;45156;-86
2023/12/05 07:20:54;;;;;;;5.50;4.13;;;22.60;21.80;;;;;;4960639;28;45294;-83
2023/12/05 07:23:20;;;;;;;4.40;4.00;;;22.60;21.80;;;;;;4961341;28;45425;-86
2023/12/05 07:25:46;;;;;;;4.65;3.67;;;22.60;21.80;;;;;;4948402;28;45316;-86
2023/12/05 07:28:13;;;;;;;4.30;3.80;;;22.60;21.80;;;;;;4952320;28;45446;-82
2023/12/05 07:30:39;;;;;;;4.65;3.90;;;22.60;21.80;;;;;;4949667;28;45225;-84
2023/12/05 07:33:05;;;;;;;5.05;4.00;;;22.60;21.80;;;;;;4965205;28;45112;-85
2023/12/05 07:35:31;;;;;;;4.10;3.70;;;22.60;21.90;;;;;;4940069;28;45765;-86
2023/12/05 07:37:56;;;;;;;4.70;4.03;;;22.60;21.80;;;;;;4979399;28;45765;-85
2023/12/05 07:40:22;;;;;;;5.70;4.00;;;22.60;21.80;;;;;;4963044;28;45658;-81
2023/12/05 07:42:48;;;;;;;4.43;3.80;;;22.60;21.80;;;;;;4980880;28;45214;-85
2023/12/05 07:45:16;;;;;;;4.43;4.03;;;22.60;21.80;;;;;;4936170;28;44777;-85
2023/12/05 07:47:43;;;;;;;4.50;4.10;;;22.60;21.80;;;;;;4961185;28;46232;-82
2023/12/05 07:50:15;;;;;;;4.78;4.13;;;22.60;21.80;;;;;;4931676;28;45442;-85
2023/12/05 07:52:42;;;;;;;5.85;3.90;;;22.60;21.90;;;;;;4931455;28;45497;-83
2023/12/05 07:55:08;;;;;;;5.25;4.07;;;22.50;21.80;;;;;;4947633;28;44859;-84
2023/12/05 07:57:34;;;;;;;4.43;4.00;;;22.50;21.80;;;;;;4977105;28;45451;-85
2023/12/05 08:00:53;;;;;;;5.40;4.05;;;22.60;21.90;;;;;;4945439;28;44857;-83
2023/12/05 08:03:40;;;;;;;4.20;3.80;;;22.60;21.90;;;;;;4946346;28;44906;-84
2023/12/05 08:06:08;;;;;;;4.50;3.92;;;22.60;21.90;;;;;;4922474;28;44875;-84
2023/12/05 08:08:35;;;;;;;5.70;4.00;;;22.60;21.90;;;;;;4917962;28;47329;-84
2023/12/05 08:11:06;;;;;;;4.83;4.17;;;22.50;21.90;;;;;;4950444;28;46511;-81
2023/12/05 08:13:34;;;;;;;4.35;3.80;;;22.50;21.90;;;;;;4927446;28;44980;-84
2023/12/05 08:16:00;;;;;;;4.70;3.77;;;22.50;21.90;;;;;;4924425;28;45524;-83
2023/12/05 08:18:26;;;;;;;4.22;3.70;;;22.50;21.90;;;;;;4933452;28;45801;-88
2023/12/05 08:20:54;;;;;;;4.57;4.07;;;22.50;21.90;;;;;;4906181;28;44863;-84
2023/12/05 08:23:23;;;;;;;6.13;4.28;;;22.50;21.90;;;;;;4923451;28;45315;-86
2023/12/05 08:25:55;;;;;;;5.53;4.05;;;22.50;21.90;;;;;;4941009;28;45555;-86
2023/12/05 08:28:24;;;;;;;4.10;3.70;;;22.50;21.90;;;;;;4920616;28;45425;-85
2023/12/05 08:30:51;;;;;;;4.17;3.77;;;22.50;21.90;;;;;;4916768;28;45217;-89
2023/12/05 08:33:19;;;;;;;4.35;3.83;;;22.50;21.90;;;;;;4909407;28;46041;-83
2023/12/05 08:35:47;;;;;;;4.43;4.00;;;22.50;21.90;;;;;;4906575;28;45478;-84
2023/12/05 08:38:14;;;;;;;4.43;3.88;;;22.50;21.90;;;;;;4943551;28;46332;-84
2023/12/05 08:40:40;;;;;;;4.43;3.97;;;22.50;21.90;;;;;;4908766;28;45562;-83
2023/12/05 08:43:07;;;;;;;4.38;3.95;;;22.50;22.00;;;;;;4940530;28;45567;-82
2023/12/05 08:45:33;;;;;;;4.63;3.90;;;22.50;22.00;;;;;;4919244;28;44783;-84
2023/12/05 08:47:59;;;;;;;4.38;3.97;;;22.50;22.00;;;;;;4924620;28;46036;-83
2023/12/05 08:50:27;;;;;;;4.43;4.00;;;22.50;22.00;;;;;;4924689;28;45226;-85
2023/12/05 08:52:52;;;;;;;4.70;4.00;;;22.40;22.00;;;;;;4938034;28;45651;-85
2023/12/05 08:55:21;;;;;;;4.35;3.75;;;22.50;22.00;;;;;;4930611;28;45522;-84
2023/12/05 08:57:48;;;;;;;4.80;3.87;;;22.50;22.00;;;;;;4910705;28;47527;-80
2023/12/05 09:00:17;;;;;;;4.43;3.67;;;22.50;22.00;;;;;;4909179;28;45244;-84
2023/12/05 09:02:52;;;;;;;4.28;3.72;;;22.50;22.00;;;;;;4955525;28;45573;-88
2023/12/05 09:05:20;;;;;;;5.00;4.03;;;22.40;22.50;;;;;;4959509;28;45338;-83
2023/12/05 09:07:46;;;;;;;4.20;3.67;;;22.40;22.00;;;;;;4931080;28;45356;-84
2023/12/05 09:10:26;;;;;;;4.10;3.70;;;22.40;22.00;;;;;;4945858;28;46078;-92
2023/12/05 09:12:54;;;;;;;5.32;3.70;;;22.40;22.00;;;;;;4966958;28;45616;-82
2023/12/05 09:15:21;;;;;;;4.45;4.03;;;22.40;22.10;;;;;;4945102;28;45151;-89
2023/12/05 09:17:48;;;;;;;5.10;3.60;;;22.40;22.10;;;;;;4948410;28;45410;-82
2023/12/05 09:20:14;;;;;;;6.95;4.10;;;22.40;22.10;;;;;;4936057;28;44981;-85
2023/12/05 09:22:41;;;;;;;4.55;4.07;;;22.40;22.10;;;;;;4935330;28;44920;-86
2023/12/05 09:25:09;;;;;;;4.20;3.80;;;22.40;22.10;;;;;;4955984;28;45569;-86
2023/12/05 09:27:37;;;;;;;4.45;3.83;;;22.40;22.10;;;;;;4952378;28;47118;-85
2023/12/05 09:30:11;;;;;;;4.47;3.90;;;22.40;22.20;;;;;;4959284;28;45845;-92
2023/12/05 09:32:41;;;;;;;4.60;3.53;;;22.40;22.10;;;;;;4941335;28;45607;-83
2023/12/05 09:35:10;;;;;;;4.60;3.90;;;22.40;22.20;;;;;;4942160;28;45294;-85
2023/12/05 09:37:39;;;;;;;4.00;3.58;;;22.40;22.20;;;;;;4940019;28;45735;-87
2023/12/05 09:40:07;;;;;;;4.07;3.57;;;22.40;22.20;;;;;;4958333;28;45323;-85
2023/12/05 09:42:33;;;;;;;4.13;3.73;;;22.40;22.20;;;;;;4940062;28;45172;-84
2023/12/05 09:45:08;;;;;;;4.90;3.70;;;22.40;22.20;;;;;;4943156;28;44783;-83
2023/12/05 09:47:47;;;;;;;4.22;3.70;;;22.30;22.20;;;;;;4958832;28;45793;-87
2023/12/05 09:50:14;;;;;;;3.70;3.40;;;22.30;22.20;;;;;;4953058;28;45498;-87
2023/12/05 09:52:40;;;;;;;4.60;3.70;;;22.30;22.20;;;;;;4944107;28;45412;-85
2023/12/05 09:55:08;;;;;;;4.30;3.70;;;22.30;22.20;;;;;;4938313;28;45117;-84
2023/12/05 09:57:36;;;;;;;4.00;3.60;;;22.30;22.20;;;;;;4957343;28;45484;-83
2023/12/05 10:00:06;;;;;;;4.18;3.75;;;22.30;22.20;;;;;;4959749;28;45523;-85
2023/12/05 10:02:32;;;;;;;4.93;3.88;;;22.30;22.20;;;;;;4936680;28;45251;-88
2023/12/05 10:05:00;;;;;;;4.43;3.63;;;22.30;22.20;;;;;;4954615;28;45576;-83
2023/12/05 10:07:30;;;;;;;4.53;3.90;;;22.30;22.20;;;;;;4921589;28;45638;-86
2023/12/05 10:09:57;;;;;;;4.10;3.70;;;22.30;22.30;;;;;;4944733;28;44971;-85
2023/12/05 10:12:22;;;;;;;4.75;3.70;;;22.30;22.30;;;;;;4957685;28;45359;-88
2023/12/05 10:15:10;;;;;;;3.92;3.42;;;22.30;22.30;;;;;;4930740;28;45681;-90
2023/12/05 10:17:37;;;;;;;4.20;3.80;;;22.30;22.30;;;;;;4954986;28;45604;-82
2023/12/05 10:20:04;;;;;;;4.50;3.70;;;22.30;22.30;;;;;;4931275;28;45084;-92
2023/12/05 10:22:33;;;;;;;3.60;3.20;;;22.30;22.30;;;;;;4944660;28;45206;-83
2023/12/05 10:24:59;;;;;;;4.03;3.50;;;22.30;22.30;;;;;;4960042;28;45203;-85
2023/12/05 10:27:25;;;;;;;4.07;3.67;;;22.30;22.30;;;;;;4939890;28;45962;-85
2023/12/05 10:29:52;;;;;;;3.92;3.53;;;22.30;22.30;;;;;;4974254;28;45361;-86
2023/12/05 10:32:18;;;;;;;4.00;3.60;;;22.30;22.30;;;;;;4949161;28;45461;-85
2023/12/05 10:34:50;;;;;;;4.07;3.67;;;22.30;22.40;;;;;;4940429;28;45520;-82
2023/12/05 10:37:23;;;;;;;4.13;3.60;;;22.30;22.40;;;;;;4946654;28;45701;-86
2023/12/05 10:39:50;;;;;;;4.43;3.63;;;22.30;22.40;;;;;;4938636;28;45347;-85
2023/12/05 10:42:17;;;;;;;3.92;3.53;;;22.30;22.40;;;;;;4953781;28;44967;-84
2023/12/05 10:44:43;;;;;;;4.57;3.60;;;22.20;22.40;;;;;;4952306;28;45064;-85
2023/12/05 10:47:11;;;;;;;4.55;3.53;;;22.20;22.50;;;;;;4938946;28;45446;-86
2023/12/05 10:49:41;;;;;;;3.75;3.35;;;22.20;22.50;;;;;;4935654;28;45909;-88
2023/12/05 10:52:15;;;;;;;4.00;3.30;;;22.20;22.50;;;;;;4949114;28;45668;-86
2023/12/05 10:54:47;;;;;;;4.50;3.65;;;22.20;22.50;;;;;;4959174;28;45035;-81
2023/12/05 10:57:20;;;;;;;4.03;3.60;;;22.20;22.50;;;;;;4943698;28;45762;-84
2023/12/05 10:59:51;;;;;;;4.30;3.40;;;22.20;22.50;;;;;;4935909;28;45636;-88
2023/12/05 11:02:18;;;;;;;3.85;3.40;;;22.20;22.60;;;;;;4935021;28;45669;-82
2023/12/05 11:04:45;;;;;;;4.63;3.53;;;22.20;22.60;;;;;;4971240;28;45809;-83
2023/12/05 11:07:11;;;;;;;3.85;3.45;;;22.20;22.60;;;;;;4910126;28;46791;-81
2023/12/05 11:09:41;;;;;;;4.28;3.38;;;22.20;22.60;;;;;;4931513;28;47017;-87
2023/12/05 11:12:07;;;;;;;4.10;3.17;;;22.20;22.60;;;;;;4945705;28;45301;-84
2023/12/05 11:14:38;;;;;;;3.80;3.40;;;22.20;22.70;;;;;;4961672;28;46337;-90
2023/12/05 11:17:05;;;;;;;3.72;3.10;;;22.20;22.70;;;;;;4968290;28;45090;-85
2023/12/05 11:19:33;;;;;;;3.90;3.35;;;22.20;22.70;;;;;;4976084;28;46050;-81
2023/12/05 11:22:37;;;;;;;4.00;3.60;;;22.20;22.70;;;;;;4943307;28;45205;-81
2023/12/05 11:25:26;;;;;;;4.25;3.30;;;22.20;22.70;;;;;;4961006;28;45621;-90
2023/12/05 11:28:13;;;;;;;4.07;3.60;;;22.10;22.70;;;;;;4948306;28;46552;-81
2023/12/05 11:30:42;;;;;;;3.80;3.40;;;22.10;22.80;;;;;;4958495;28;45491;-83
2023/12/05 11:33:35;;;;;;;3.58;3.28;;;22.20;22.80;;;;;;4982707;28;45456;-82
2023/12/05 11:36:24;;;;;;;4.22;3.40;;;22.10;22.80;;;;;;4980458;28;45720;-84
2023/12/05 11:38:49;;;;;;;3.80;3.22;;;22.10;22.80;;;;;;4963066;28;46335;-88
2023/12/05 11:41:20;;;;;;;4.53;3.28;;;22.10;22.80;;;;;;4961373;28;45427;-84
2023/12/05 11:44:11;;;;;;;3.92;3.42;;;22.10;22.80;;;;;;4949696;28;45488;-84
2023/12/05 11:46:37;;;;;;;3.80;3.22;;;22.10;22.90;;;;;;4975432;28;45550;-86
2023/12/05 11:49:04;;;;;;;4.00;3.47;;;22.10;22.90;;;;;;4948958;28;46493;-85
2023/12/05 11:51:30;;;;;;;3.88;3.40;;;22.10;22.90;;;;;;4943049;28;45020;-82
2023/12/05 11:53:56;;;;;;;3.60;3.30;;;22.10;22.90;;;;;;4947434;28;45346;-87
2023/12/05 11:56:23;;;;;;;3.50;3.20;;;22.10;22.90;;;;;;4963019;28;45701;-83
2023/12/05 11:58:49;;;;;;;3.85;3.28;;;22.10;22.90;;;;;;4943707;28;46078;-84
2023/12/05 12:01:15;;;;;;;4.27;3.43;;;22.00;22.90;;;;;;4957132;28;45680;-84
2023/12/05 12:03:47;;;;;;;3.67;3.20;;;22.00;22.90;;;;;;4944680;28;45614;-85
2023/12/05 12:06:17;;;;;;;3.60;3.10;;;22.00;22.90;;;;;;4958172;28;44846;-81
2023/12/05 12:08:45;;;;;;;3.70;3.30;;;22.00;22.90;;;;;;4961059;28;45653;-80
2023/12/05 12:11:11;;;;;;;4.70;3.43;;;22.00;23.00;;;;;;4943536;28;45589;-88
2023/12/05 12:13:37;;;;;;;4.43;3.53;;;22.00;23.00;;;;;;4949248;28;45494;-84
2023/12/05 12:16:07;;;;;;;4.22;3.22;;;22.00;23.00;;;;;;4954347;28;45317;-83
2023/12/05 12:18:33;;;;;;;3.90;3.10;;;22.00;23.00;;;;;;4933172;28;45930;-86
2023/12/05 12:20:59;;;;;;;4.20;3.60;;;22.00;23.00;;;;;;4937170;28;45801;-83
2023/12/05 12:23:25;;;;;;;4.32;3.42;;;22.00;23.00;;;;;;4943010;28;45229;-85
2023/12/05 12:25:54;;;;;;;3.88;3.42;;;22.00;23.00;;;;;;4972126;28;44950;-84
2023/12/05 12:28:28;;;;;;;3.80;3.40;;;22.00;23.10;;;;;;4946568;28;45905;-88
2023/12/05 12:30:55;;;;;;;3.53;3.10;;;22.00;23.10;;;;;;4942155;28;45075;-84
2023/12/05 12:33:22;;;;;;;4.18;3.42;;;22.00;23.20;;;;;;4951795;28;45483;-82
2023/12/05 12:35:49;;;;;;;3.90;3.30;;;22.00;23.10;;;;;;4941452;28;46122;-81
2023/12/05 12:38:15;;;;;;;4.70;3.60;;;22.00;23.10;;;;;;4941641;28;46327;-82
2023/12/05 12:40:41;;;;;;;3.53;3.20;;;22.00;23.20;;;;;;4940239;28;45691;-90
2023/12/05 12:43:08;;;;;;;4.22;3.60;;;22.00;23.20;;;;;;4941694;28;45036;-81
2023/12/05 12:45:34;;;;;;;4.32;3.50;;;22.00;23.40;;;;;;4909551;28;44863;-84
2023/12/05 12:48:03;;;;;;;4.13;3.40;;;21.90;23.20;;;;;;4926570;28;46249;-83
2023/12/05 12:50:29;;;;;;;3.97;3.50;;;22.00;23.20;;;;;;4944712;28;45569;-84
2023/12/05 12:52:55;;;;;;;3.80;3.08;;;22.00;23.20;;;;;;4927358;28;45770;-82
2023/12/05 12:55:23;;;;;;;4.10;3.70;;;21.90;23.20;;;;;;4941703;28;44920;-86
2023/12/05 12:57:53;;;;;;;4.38;3.88;;;21.90;23.20;;;;;;4927493;28;48648;-85
2023/12/05 13:00:23;;;;;;;4.25;3.47;;;21.90;23.20;;;;;;4936909;28;46129;-93
2023/12/05 13:02:55;;;;;;;3.78;3.20;;;21.90;23.30;;;;;;4940942;28;45240;-85
2023/12/05 13:05:35;;;;;;;4.93;3.85;;;21.90;23.30;;;;;;4944924;28;46923;-85
2023/12/05 13:08:01;;;;;;;5.30;3.70;;;21.80;23.30;;;;;;4932707;28;46818;-87
2023/12/05 13:10:31;;;;;;;4.85;3.85;;;21.90;23.30;;;;;;4958357;28;45347;-91
2023/12/05 13:13:01;;;;;;;4.77;3.40;;;21.90;23.40;;;;;;4943460;28;45773;-88
2023/12/05 13:15:28;;;;;;;4.90;3.70;;;21.90;23.40;;;;;;4941881;28;45181;-90
2023/12/05 13:18:03;;;;;;;3.83;3.30;;;21.80;23.40;;;;;;4943027;28;46229;-82
2023/12/05 13:20:29;;;;;;;4.40;3.40;;;21.80;23.40;;;;;;4955835;28;45284;-90
2023/12/05 13:22:55;;;;;;;4.30;3.25;;;21.90;23.40;;;;;;4924404;28;45755;-84
2023/12/05 13:25:22;;;;;;;4.18;3.30;;;21.80;23.40;;;;;;4956011;28;45575;-85
2023/12/05 13:27:50;;;;;;;4.15;3.15;;;21.80;23.40;;;;;;4957182;28;45569;-85
2023/12/05 13:30:20;;;;;;;3.47;2.88;;;21.80;23.50;;;;;;4959338;28;46097;-85
2023/12/05 13:32:46;;;;;;;3.42;3.10;;;21.90;23.50;;;;;;4946774;28;44860;-87
2023/12/05 13:35:13;;;;;;;3.95;3.00;;;21.80;23.50;;;;;;4931595;28;45434;-86
2023/12/05 13:37:39;;;;;;;3.95;2.80;;;21.90;23.60;;;;;;4960220;28;45418;-81
2023/12/05 13:40:09;;;;;;;3.50;2.78;;;21.90;23.60;;;;;;4943636;28;45773;-88
2023/12/05 13:43:22;;;;;;;4.15;2.90;;;21.90;23.60;;;;;;4919437;28;45265;-81
2023/12/05 13:47:20;;;;;;;3.50;2.63;;;21.80;23.60;;;;;;4819831;29;45317;-83
2023/12/05 13:51:19;;;;;;;3.00;2.70;;;21.80;23.60;;;;;;4733248;29;45286;-81
2023/12/05 13:58:59;;;;;;;3.55;2.75;;;21.80;23.70;;;;;;4764076;29;45214;-86
2023/12/05 15:02:41;;;;;;;3.22;2.60;;;21.60;24.50;;;;;;4963122;28;46505;-88
2023/12/05 15:09:47;;;;;;;3.42;2.40;;;21.60;24.60;;;;;;4977723;28;44865;-87
2023/12/05 15:13:04;;;;;;;3.03;2.45;;;21.60;24.70;;;;;;4916086;28;45582;-85
2023/12/05 15:16:21;;;;;;;2.63;2.30;;;21.60;24.80;;;;;;4859013;28;45309;-86
2023/12/05 15:28:22;;;;;;;2.58;2.13;;;21.70;24.90;;;;;;4820586;29;45258;-87
2023/12/05 15:31:11;;;;;;;3.42;2.35;;;21.70;25.10;;;;;;4775793;29;45098;-81
2023/12/05 15:35:11;;;;;;;2.90;2.10;;;21.70;24.90;;;;;;4796307;29;45268;-84
2023/12/05 15:39:29;;;;;;;3.08;2.30;;;21.70;25.00;;;;;;4888144;28;44786;-85
2023/12/05 15:43:41;;;;;;;2.70;2.15;;;21.80;25.00;;;;;;4790540;29;44839;-84
2023/12/05 15:51:06;;;;;;;2.60;1.97;;;21.80;25.10;;;;;;4836146;28;45830;-86
2023/12/05 15:54:48;;;;;;;2.35;1.98;;;21.80;25.10;;;;;;4899462;28;44884;-82
2023/12/05 15:58:49;;;;;;;2.53;1.97;;;21.90;25.10;;;;;;4913219;28;44944;-88
2023/12/05 16:14:10;;;;;;;2.10;1.50;;;22.00;25.20;;;;;;4865510;28;46394;-83
2023/12/05 16:17:25;;;;;;;1.98;1.42;;;22.00;25.20;;;;;;4893989;28;45348;-86
2023/12/05 16:25:44;;;;;;;2.28;1.50;;;22.10;25.20;;;;;;4878931;28;45197;-81
2023/12/05 16:29:28;;;;;;;1.83;1.50;;;22.10;25.20;;;;;;4892692;28;45629;-85
2023/12/05 16:32:56;;;;;;;1.73;1.20;;;22.20;25.20;;;;;;4891188;28;45179;-85
2023/12/05 16:35:36;;;;;;;1.70;1.50;;;22.20;25.20;;;;;;4904952;28;46524;-80
2023/12/05 16:38:05;;;;;;;1.87;1.33;;;22.20;25.10;;;;;;4917518;28;45253;-85
2023/12/05 16:40:43;;;;;;;2.00;1.47;;;22.30;25.10;;;;;;4901098;28;45210;-81
2023/12/05 16:43:20;;;;;;;1.20;1.10;;;22.30;25.10;;;;;;4904997;28;45370;-81
2023/12/05 16:46:14;;;;;;;1.67;1.38;;;22.30;25.10;;;;;;4887190;28;45982;-82
2023/12/05 16:49:12;;;;;;;1.83;1.50;;;22.40;25.20;;;;;;4916918;28;44771;-82
2023/12/05 16:51:40;;;;;;;1.50;1.33;;;22.40;25.10;;;;;;4936440;28;44838;-83
2023/12/05 16:54:09;;;;;;;2.40;1.40;;;22.40;25.10;;;;;;4941080;28;45481;-84
2023/12/05 16:56:35;;;;;;;2.10;1.42;;;22.50;25.10;;;;;;4922205;28;45700;-81
2023/12/05 16:59:04;;;;;;;2.67;1.50;;;22.50;25.10;;;;;;4928007;28;45116;-90
2023/12/05 17:01:30;;;;;;;1.98;1.40;;;22.50;25.10;;;;;;4917116;28;45259;-84
2023/12/05 17:03:57;;;;;;;2.28;1.63;;;22.50;25.00;;;;;;4923497;28;44814;-86
2023/12/05 17:06:23;;;;;;;1.27;1.17;;;22.60;25.00;;;;;;4936673;28;47816;-80
2023/12/05 17:08:48;;;;;;;1.50;1.40;;;22.60;25.00;;;;;;4924457;28;44827;-84
2023/12/05 17:11:14;;;;;;;1.30;1.20;;;22.60;25.00;;;;;;4919639;28;45366;-81
2023/12/05 17:13:51;;;;;;;1.67;1.50;;;22.70;25.00;;;;;;4942060;28;45530;-85
2023/12/05 17:16:21;;;;;;;1.63;1.38;;;22.70;24.90;;;;;;4940131;28;45306;-83
2023/12/05 17:18:57;;;;;;;1.95;1.30;;;22.70;24.90;;;;;;4934324;28;44676;-81
2023/12/05 17:21:26;;;;;;;2.95;1.55;;;22.70;24.80;;;;;;4920252;28;44766;-86
2023/12/05 17:23:56;;;;;;;2.58;1.30;;;22.80;24.90;;;;;;4936813;28;45788;-82
2023/12/05 17:26:23;;;;;;;1.55;1.30;;;22.80;24.80;;;;;;4926158;28;45316;-93
2023/12/05 17:29:09;;;;;;;1.77;1.35;;;22.90;24.80;;;;;;4952179;28;45245;-89
2023/12/05 17:32:04;;;;;;;2.50;1.30;;;22.90;24.80;;;;;;4949068;28;45374;-80
2023/12/05 17:35:21;;;;;;;1.35;1.20;;;22.90;24.70;;;;;;4956206;28;46077;-83
2023/12/05 17:38:11;;;;;;;1.50;1.30;;;22.90;24.70;;;;;;4932083;28;45228;-88
2023/12/05 17:40:38;;;;;;;1.60;1.27;;;23.00;24.70;;;;;;4935168;28;45322;-87
2023/12/05 17:43:06;;;;;;;1.40;1.30;;;23.00;24.70;;;;;;4922110;28;45341;-83
2023/12/05 17:45:34;;;;;;;1.45;1.23;;;23.00;24.70;;;;;;4915274;28;45224;-84
2023/12/05 17:48:07;;;;;;;1.50;1.20;;;23.10;24.70;;;;;;4908069;28;45781;-83
2023/12/05 17:51:09;;;;;;;1.60;1.30;;;23.10;24.70;;;;;;4919410;28;45336;-84
2023/12/05 17:54:44;;;;;;;1.77;1.37;;;23.10;24.70;;;;;;4921962;28;44977;-84
2023/12/05 17:57:49;;;;;;;1.67;1.40;;;23.10;24.60;;;;;;4909246;28;45662;-85
2023/12/05 18:08:54;;;;;;;1.50;1.20;;;23.20;24.60;;;;;;4972568;28;45480;-81
2023/12/05 18:11:44;;;;;;;1.92;1.27;;;23.20;24.60;;;;;;4974411;28;45647;-80
2023/12/05 18:14:55;;;;;;;1.80;1.40;;;23.20;24.50;;;;;;4944349;28;45193;-86
2023/12/05 18:33:55;;;;;;;1.60;1.40;;;23.30;24.50;;;;;;4965683;28;46522;-83
2023/12/05 18:40:01;;;;;;;1.48;1.30;;;23.30;24.50;;;;;;4972774;28;45311;-83
2023/12/05 18:43:59;;;;;;;1.98;1.50;;;23.30;24.50;;;;;;4965217;28;45483;-83
2023/12/05 18:47:46;;;;;;;2.30;1.45;;;23.30;24.50;;;;;;4952138;28;45675;-86
2023/12/05 18:50:36;;;;;;;1.30;1.20;;;23.30;24.40;;;;;;4931866;28;45487;-80
2023/12/05 18:53:43;;;;;;;1.83;1.52;;;23.30;24.40;;;;;;4892222;28;45696;-88
2023/12/05 19:00:47;;;;;;;1.80;1.40;;;23.30;24.40;;;;;;4961328;28;45329;-93
2023/12/05 19:04:31;;;;;;;1.70;1.50;;;23.30;24.40;;;;;;4955764;28;45173;-86
2023/12/05 19:07:55;;;;;;;2.00;1.70;;;23.30;24.40;;;;;;4952511;28;45765;-82
2023/12/05 19:11:32;;;;;;;1.95;1.60;;;23.30;24.40;;;;;;4898833;28;45558;-83
2023/12/05 19:14:48;;;;;;;2.08;1.70;;;23.30;24.40;;;;;;4954370;28;45248;-83
2023/12/05 19:17:52;;;;;;;2.30;1.80;;;23.30;24.40;;;;;;4971014;28;45202;-82
2023/12/05 19:20:55;;;;;;;1.85;1.60;;;23.30;24.40;;;;;;4896903;28;44884;-80
2023/12/05 19:23:28;;;;;;;2.40;1.75;;;23.40;24.90;;;;;;4946983;28;44869;-82
2023/12/05 19:26:13;;;;;;;2.10;1.80;;;23.40;24.40;;;;;;4938128;28;44856;-84
2023/12/05 19:28:57;;;;;;;1.73;1.60;;;23.40;24.40;;;;;;4971229;28;45227;-81
2023/12/05 19:31:53;;;;;;;1.95;1.60;;;23.40;24.40;;;;;;4972410;28;44792;-86
2023/12/05 19:34:51;;;;;;;1.88;1.70;;;23.30;24.40;;;;;;4956887;28;44713;-84
2023/12/05 19:37:56;;;;;;;1.90;1.60;;;23.40;24.50;;;;;;4937000;28;45224;-83
2023/12/05 19:41:04;;;;;;;2.07;1.80;;;23.30;24.40;;;;;;4922022;28;45720;-81
2023/12/05 19:46:53;;;;;;;2.00;1.80;;;23.40;24.50;;;;;;4939135;28;45269;-83
2023/12/05 19:50:01;;;;;;;2.42;1.88;;;23.40;24.40;;;;;;4932563;28;44841;-91
2023/12/05 19:57:32;;;;;;;2.03;1.80;;;23.30;24.40;;;;;;4956335;28;45336;-83
2023/12/05 20:01:33;;;;;;;2.07;1.70;;;23.30;24.40;;;;;;4894847;28;45523;-87